Ana Sayfa
METAR-TAF:

METAR-TAF

Havaalanları :

Pecos, Teksas, Amerika Birleşik Devletleri

Enlem: 31-22-56N, Boylam: 103-30-38W, yükseklik: 796 m

Güncel hava durumu gözlemi

Rapor saat 06:55 UTC de 27 dakika önce yapıldı.
Rüzgar güneydoğudan 3 kt
Sıcaklık 0°C
Nem 64%
Basınç 1021 hPa
Görüş mesafesi: 16.1 km
Açık gökyüzü

METAR: KPEQ 290655Z AUTO 13003KT 10SM CLR 00/M06 A3014 RMK AO2 T00041062

Saat: 01:22 (07:22 UTC)

Tahmin

Rapor saat 05:32 UTC de 1 saat ve 50 dakika önce yapıldı.
Ayın 29'si saat 06 UTC'den ayın 30'si saat 06 UTC'ye kadar geçerli Tahmin
Rüzgar değişken yönden 3 kt
Görüş mesafesi: 10 km
Açık gökyüzü
Ayın 29'si saat 1800 UTC'den
Rüzgar doğudan 11 kt
Görüş mesafesi: 10 km
Açık gökyüzü

TAF: KPEQ 290532Z 2906/3006 VRB03KT P6SM SKC FM291800 10011KT P6SM SKC

4.000'den fazla havaalanı için hava durumu gözlemleri ve tahminleri (METAR ve TAF raporları).

Kullanılabilir istasyonlar harita üzerinde sarı ve kırmızı noktalarla gösterilir.

İstasyonun adını görmek için fareyi noktanın üzerinde gezdirin.

Sonrasında hava gözlem ve tahminlerini görmek için tıklayın.

Haritayı değiştirmek için: yaklaştırmak için siyah artı işaretli yeşil düğmeye ve uzaklaştırmak için de eksi işaretli düğmeye hızla tıklayın; bitişik haritalar için yeşil okları kullanın.


METAR-TAF: